Liberty — FHQD — position and weather

sailwx.info

Track history (hours):
 
Tides and Currents Weather Stations Pressure Air Temp Water Temp Dewpoint Dewpoint Depression Visibility Wind Speed Wind Dir Waves Ship Positions

Liberty

Last reported at 2018-Feb-20 17:43 UTC. Time now 2018-Feb-20 19:41 UTC.
Position N 16°07' W 061°28'.

Length 47 m; draft 1.8 m.

Type: High speed craft. MMSI: 228008600.

Date/timePositionNaut miles runAvg speedWind from/ knotsBaromVisibWave heightAir tempDewpointWater temp
2018-Feb-20 17:43N 16°07' W 061°28'625.9
2018-Feb-20 17:29N 16°12' W 061°31'2 3.9
2018-Feb-20 17:00N 16°14' W 061°32'11 2.6
2018-Feb-20 12:48N 16°04' W 061°26'725.4
2018-Feb-20 12:30N 16°11' W 061°30'4 3.0
2018-Feb-20 11:06N 16°14' W 061°33'110.1
2018-Feb-20 10:57N 16°13' W 061°32'7 0.5
2018-Feb-19 21:40N 16°07' W 061°29'723.0
2018-Feb-19 21:22N 16°13' W 061°32'1 3.1
2018-Feb-19 20:58N 16°14' W 061°33'0 0.0
2018-Feb-19 20:30N 16°14' W 061°33'0 0.0
2018-Feb-19 19:59N 16°14' W 061°33'0 0.0
2018-Feb-19 19:23N 16°14' W 061°33'0 0.0
2018-Feb-19 18:57N 16°14' W 061°33'0 0.0
2018-Feb-19 18:16N 16°14' W 061°33'0 0.1
2018-Feb-19 18:00N 16°14' W 061°32'0 0.0
2018-Feb-19 17:30N 16°14' W 061°32'0 0.0
2018-Feb-19 17:00N 16°14' W 061°32'0 0.0
2018-Feb-19 16:29N 16°14' W 061°32'0 0.0
2018-Feb-19 15:56N 16°14' W 061°32'0 0.0
2018-Feb-19 15:18N 16°14' W 061°32'0 0.0
2018-Feb-19 14:57N 16°14' W 061°32'0 0.0
2018-Feb-19 14:21N 16°14' W 061°32'0 0.0
2018-Feb-19 13:58N 16°14' W 061°32'0 0.0
2018-Feb-19 13:26N 16°14' W 061°32'0 0.0
2018-Feb-19 12:59N 16°14' W 061°32'0 0.0
2018-Feb-19 07:59N 16°14' W 061°32'0 0.0
2018-Feb-19 07:24N 16°14' W 061°32'0 0.0
2018-Feb-19 06:48N 16°14' W 061°32'0 0.0
2018-Feb-19 05:10N 16°14' W 061°32'0 0.0
2018-Feb-19 04:59N 16°14' W 061°32'0 0.0
2018-Feb-19 04:20N 16°14' W 061°32'0 0.0
2018-Feb-19 03:51N 16°14' W 061°32'0 0.0
2018-Feb-19 01:03N 16°14' W 061°32'0 8.4
2018-Feb-19 01:00N 16°14' W 061°32'10223.1
2018-Feb-18 20:34N 14°35' W 061°04'1 0.7
2018-Feb-18 19:40N 14°36' W 061°04'623.3
2018-Feb-18 19:25N 14°31' W 061°06'1126.0
2018-Feb-18 19:01N 14°20' W 061°04'2 0.1
2018-Feb-17 19:11N 14°22' W 061°05'627.9
2018-Feb-17 18:59N 14°28' W 061°06'911.2
2018-Feb-17 18:12N 14°36' W 061°04'0 0.1
2018-Feb-17 17:23N 14°36' W 061°04'7320.2
2018-Feb-17 13:47N 15°43' W 061°34'920.6
2018-Feb-17 13:19N 15°52' W 061°35'1317.6
2018-Feb-17 12:36N 16°04' W 061°31'325.3
2018-Feb-17 12:30N 16°07' W 061°31'8 6.9
2018-Feb-17 11:24N 16°14' W 061°32'1 2.7
2018-Feb-17 10:59N 16°13' W 061°32'6 0.5
2018-Feb-16 21:38N 16°08' W 061°29'426.8
2018-Feb-16 21:30N 16°11' W 061°31'4 6.9
2018-Feb-16 20:58N 16°14' W 061°32'0 0.0
2018-Feb-16 18:20N 16°14' W 061°32'616.7
2018-Feb-16 17:59N 16°09' W 061°31'9721.2
2018-Feb-16 13:25N 14°35' W 061°05'2 1.6
2018-Feb-16 12:28N 14°36' W 061°04'1227.0
2018-Feb-16 12:00N 14°23' W 061°06'2 0.3
2018-Feb-16 02:47N 14°21' W 061°05'828.1
2018-Feb-16 02:30N 14°29' W 061°06'710.2
2018-Feb-16 01:47N 14°36' W 061°04'0 0.0
2018-Feb-16 01:30N 14°36' W 061°04'8922.5
2018-Feb-15 21:33N 16°02' W 061°30'325.9
2018-Feb-15 21:25N 16°05' W 061°30'1021.6
2018-Feb-15 20:59N 16°14' W 061°32'0 0.0
2018-Feb-15 11:11N 16°14' W 061°32'211.2
2018-Feb-15 10:59N 16°12' W 061°32'3 0.2
2018-Feb-14 21:37N 16°10' W 061°30'520.0
2018-Feb-14 21:23N 16°14' W 061°32'1 1.0
2018-Feb-14 20:36N 16°14' W 061°32'0 0.0
2018-Feb-14 19:34N 16°14' W 061°32'0 0.0
2018-Feb-14 19:25N 16°14' W 061°32'717.4
2018-Feb-14 19:00N 16°07' W 061°30'9518.4
2018-Feb-14 13:49N 14°35' W 061°05'1 1.8
2018-Feb-14 13:18N 14°36' W 061°04'724.9
2018-Feb-14 13:00N 14°29' W 061°07'10 0.5
2018-Feb-13 18:36N 14°20' W 061°04'325.2
2018-Feb-13 18:28N 14°23' W 061°04'13 8.2
2018-Feb-13 16:55N 14°36' W 061°04'9020.8
2018-Feb-13 12:35N 16°02' W 061°30'524.6
2018-Feb-13 12:22N 16°07' W 061°31'719.4
2018-Feb-13 12:01N 16°14' W 061°32'0 0.1
2018-Feb-13 11:30N 16°14' W 061°32'1 2.1
2018-Feb-13 11:00N 16°13' W 061°32'9 0.6
2018-Feb-12 21:43N 16°06' W 061°27'626.1
2018-Feb-12 21:29N 16°11' W 061°30'4 1.3
2018-Feb-12 18:29N 16°14' W 061°32'0 0.1
2018-Feb-12 17:51N 16°14' W 061°33'616.9
2018-Feb-12 17:29N 16°09' W 061°31'9618.7
2018-Feb-12 12:21N 14°36' W 061°04'722.2
2018-Feb-12 12:01N 14°29' W 061°06'1427.7
2018-Feb-12 11:29N 14°15' W 061°04'3 0.3
2018-Feb-12 00:23N 14°18' W 061°05'1026.0
2018-Feb-12 00:00N 14°28' W 061°06'9 8.8
2018-Feb-11 23:02N 14°36' W 061°04'0 8.6
2018-Feb-11 23:00N 14°36' W 061°04'9621.4
2018-Feb-11 18:31N 16°08' W 061°31'024.1
2018-Feb-11 18:30N 16°09' W 061°31'6 7.5
2018-Feb-11 17:43N 16°14' W 061°32'0 0.0
2018-Feb-11 17:26N 16°14' W 061°32'0 0.0
2018-Feb-11 16:58N 16°14' W 061°32'0 0.0
2018-Feb-11 16:31N 16°14' W 061°32'0 0.0
2018-Feb-11 16:00N 16°14' W 061°32'0 0.0
2018-Feb-11 15:31N 16°14' W 061°32'0 0.0
2018-Feb-11 15:00N 16°14' W 061°32'0 0.0
2018-Feb-11 14:29N 16°14' W 061°32'0 0.0
2018-Feb-11 14:00N 16°14' W 061°32'0 0.0
2018-Feb-11 13:30N 16°14' W 061°32'0 0.0
2018-Feb-11 12:58N 16°14' W 061°32'0 0.0
2018-Feb-11 12:29N 16°14' W 061°32'0 0.0
2018-Feb-11 12:00N 16°14' W 061°32'0 0.0
2018-Feb-11 11:25N 16°14' W 061°32'0 0.0
2018-Feb-11 11:00N 16°14' W 061°32'0 0.0
2018-Feb-11 10:17N 16°14' W 061°32'0 0.0
2018-Feb-11 09:56N 16°14' W 061°32'0 0.0
2018-Feb-11 08:35N 16°14' W 061°32'0 0.0
2018-Feb-11 08:30N 16°14' W 061°32'0 0.0
2018-Feb-11 07:55N 16°14' W 061°32'0 0.0
2018-Feb-11 07:27N 16°14' W 061°32'0 0.0
2018-Feb-11 06:54N 16°14' W 061°32'0 0.0
2018-Feb-11 06:24N 16°14' W 061°32'0 0.0
2018-Feb-11 06:01N 16°14' W 061°32'0 0.0
2018-Feb-11 05:29N 16°14' W 061°32'0 0.0
2018-Feb-11 05:00N 16°14' W 061°32'0 0.0
2018-Feb-10 22:45N 16°14' W 061°32'312.0
2018-Feb-10 22:30N 16°12' W 061°32'1823.3
2018-Feb-10 21:43N 15°54' W 061°35'2 5.6
2018-Feb-10 21:26N 15°52' W 061°35'  
Track history (hours):
 
Tides and Currents Weather Stations Pressure Air Temp Water Temp Dewpoint Dewpoint Depression Visibility Wind Speed Wind Dir Waves Ship Positions

Liberty

Last reported at 2018-Feb-20 17:43 UTC. Time now 2018-Feb-20 19:41 UTC.
Position N 16°07' W 061°28'.

Length 47 m; draft 1.8 m.

Type: High speed craft. MMSI: 228008600.

Date/timePositionNaut miles runAvg speedWind from/ knotsBaromVisibWave heightAir tempDewpointWater temp
2018-Feb-20 17:43N 16°07' W 061°28'625.9
2018-Feb-20 17:29N 16°12' W 061°31'2 3.9
2018-Feb-20 17:00N 16°14' W 061°32'11 2.6
2018-Feb-20 12:48N 16°04' W 061°26'725.4
2018-Feb-20 12:30N 16°11' W 061°30'4 3.0
2018-Feb-20 11:06N 16°14' W 061°33'110.1
2018-Feb-20 10:57N 16°13' W 061°32'7 0.5
2018-Feb-19 21:40N 16°07' W 061°29'723.0
2018-Feb-19 21:22N 16°13' W 061°32'1 3.1
2018-Feb-19 20:58N 16°14' W 061°33'0 0.0
2018-Feb-19 20:30N 16°14' W 061°33'0 0.0
2018-Feb-19 19:59N 16°14' W 061°33'0 0.0
2018-Feb-19 19:23N 16°14' W 061°33'0 0.0
2018-Feb-19 18:57N 16°14' W 061°33'0 0.0
2018-Feb-19 18:16N 16°14' W 061°33'0 0.1
2018-Feb-19 18:00N 16°14' W 061°32'0 0.0
2018-Feb-19 17:30N 16°14' W 061°32'0 0.0
2018-Feb-19 17:00N 16°14' W 061°32'0 0.0
2018-Feb-19 16:29N 16°14' W 061°32'0 0.0
2018-Feb-19 15:56N 16°14' W 061°32'0 0.0
2018-Feb-19 15:18N 16°14' W 061°32'0 0.0
2018-Feb-19 14:57N 16°14' W 061°32'0 0.0
2018-Feb-19 14:21N 16°14' W 061°32'0 0.0
2018-Feb-19 13:58N 16°14' W 061°32'0 0.0
2018-Feb-19 13:26N 16°14' W 061°32'0 0.0
2018-Feb-19 12:59N 16°14' W 061°32'0 0.0
2018-Feb-19 07:59N 16°14' W 061°32'0 0.0
2018-Feb-19 07:24N 16°14' W 061°32'0 0.0
2018-Feb-19 06:48N 16°14' W 061°32'0 0.0
2018-Feb-19 05:10N 16°14' W 061°32'0 0.0
2018-Feb-19 04:59N 16°14' W 061°32'0 0.0
2018-Feb-19 04:20N 16°14' W 061°32'0 0.0
2018-Feb-19 03:51N 16°14' W 061°32'0 0.0
2018-Feb-19 01:03N 16°14' W 061°32'0 8.4
2018-Feb-19 01:00N 16°14' W 061°32'10223.1
2018-Feb-18 20:34N 14°35' W 061°04'1 0.7
2018-Feb-18 19:40N 14°36' W 061°04'623.3
2018-Feb-18 19:25N 14°31' W 061°06'1126.0
2018-Feb-18 19:01N 14°20' W 061°04'2 0.1
2018-Feb-17 19:11N 14°22' W 061°05'627.9
2018-Feb-17 18:59N 14°28' W 061°06'911.2
2018-Feb-17 18:12N 14°36' W 061°04'0 0.1
2018-Feb-17 17:23N 14°36' W 061°04'7320.2
2018-Feb-17 13:47N 15°43' W 061°34'920.6
2018-Feb-17 13:19N 15°52' W 061°35'1317.6
2018-Feb-17 12:36N 16°04' W 061°31'325.3
2018-Feb-17 12:30N 16°07' W 061°31'8 6.9
2018-Feb-17 11:24N 16°14' W 061°32'1 2.7
2018-Feb-17 10:59N 16°13' W 061°32'6 0.5
2018-Feb-16 21:38N 16°08' W 061°29'426.8
2018-Feb-16 21:30N 16°11' W 061°31'4 6.9
2018-Feb-16 20:58N 16°14' W 061°32'0 0.0
2018-Feb-16 18:20N 16°14' W 061°32'616.7
2018-Feb-16 17:59N 16°09' W 061°31'9721.2
2018-Feb-16 13:25N 14°35' W 061°05'2 1.6
2018-Feb-16 12:28N 14°36' W 061°04'1227.0
2018-Feb-16 12:00N 14°23' W 061°06'2 0.3
2018-Feb-16 02:47N 14°21' W 061°05'828.1
2018-Feb-16 02:30N 14°29' W 061°06'710.2
2018-Feb-16 01:47N 14°36' W 061°04'0 0.0
2018-Feb-16 01:30N 14°36' W 061°04'8922.5
2018-Feb-15 21:33N 16°02' W 061°30'325.9
2018-Feb-15 21:25N 16°05' W 061°30'1021.6
2018-Feb-15 20:59N 16°14' W 061°32'0 0.0
2018-Feb-15 11:11N 16°14' W 061°32'211.2
2018-Feb-15 10:59N 16°12' W 061°32'3 0.2
2018-Feb-14 21:37N 16°10' W 061°30'520.0
2018-Feb-14 21:23N 16°14' W 061°32'1 1.0
2018-Feb-14 20:36N 16°14' W 061°32'0 0.0
2018-Feb-14 19:34N 16°14' W 061°32'0 0.0
2018-Feb-14 19:25N 16°14' W 061°32'717.4
2018-Feb-14 19:00N 16°07' W 061°30'9518.4
2018-Feb-14 13:49N 14°35' W 061°05'1 1.8
2018-Feb-14 13:18N 14°36' W 061°04'724.9
2018-Feb-14 13:00N 14°29' W 061°07'10 0.5
2018-Feb-13 18:36N 14°20' W 061°04'325.2
2018-Feb-13 18:28N 14°23' W 061°04'13 8.2
2018-Feb-13 16:55N 14°36' W 061°04'9020.8
2018-Feb-13 12:35N 16°02' W 061°30'524.6
2018-Feb-13 12:22N 16°07' W 061°31'719.4
2018-Feb-13 12:01N 16°14' W 061°32'0 0.1
2018-Feb-13 11:30N 16°14' W 061°32'1 2.1
2018-Feb-13 11:00N 16°13' W 061°32'9 0.6
2018-Feb-12 21:43N 16°06' W 061°27'626.1
2018-Feb-12 21:29N 16°11' W 061°30'4 1.3
2018-Feb-12 18:29N 16°14' W 061°32'0 0.1
2018-Feb-12 17:51N 16°14' W 061°33'616.9
2018-Feb-12 17:29N 16°09' W 061°31'9618.7
2018-Feb-12 12:21N 14°36' W 061°04'722.2
2018-Feb-12 12:01N 14°29' W 061°06'1427.7
2018-Feb-12 11:29N 14°15' W 061°04'3 0.3
2018-Feb-12 00:23N 14°18' W 061°05'1026.0
2018-Feb-12 00:00N 14°28' W 061°06'9 8.8
2018-Feb-11 23:02N 14°36' W 061°04'0 8.6
2018-Feb-11 23:00N 14°36' W 061°04'9621.4
2018-Feb-11 18:31N 16°08' W 061°31'024.1
2018-Feb-11 18:30N 16°09' W 061°31'6 7.5
2018-Feb-11 17:43N 16°14' W 061°32'0 0.0
2018-Feb-11 17:26N 16°14' W 061°32'0 0.0
2018-Feb-11 16:58N 16°14' W 061°32'0 0.0
2018-Feb-11 16:31N 16°14' W 061°32'0 0.0
2018-Feb-11 16:00N 16°14' W 061°32'0 0.0
2018-Feb-11 15:31N 16°14' W 061°32'0 0.0
2018-Feb-11 15:00N 16°14' W 061°32'0 0.0
2018-Feb-11 14:29N 16°14' W 061°32'0 0.0
2018-Feb-11 14:00N 16°14' W 061°32'0 0.0
2018-Feb-11 13:30N 16°14' W 061°32'0 0.0
2018-Feb-11 12:58N 16°14' W 061°32'0 0.0
2018-Feb-11 12:29N 16°14' W 061°32'0 0.0
2018-Feb-11 12:00N 16°14' W 061°32'0 0.0
2018-Feb-11 11:25N 16°14' W 061°32'0 0.0
2018-Feb-11 11:00N 16°14' W 061°32'0 0.0
2018-Feb-11 10:17N 16°14' W 061°32'0 0.0
2018-Feb-11 09:56N 16°14' W 061°32'0 0.0
2018-Feb-11 08:35N 16°14' W 061°32'0 0.0
2018-Feb-11 08:30N 16°14' W 061°32'0 0.0
2018-Feb-11 07:55N 16°14' W 061°32'0 0.0
2018-Feb-11 07:27N 16°14' W 061°32'0 0.0
2018-Feb-11 06:54N 16°14' W 061°32'0 0.0
2018-Feb-11 06:24N 16°14' W 061°32'0 0.0
2018-Feb-11 06:01N 16°14' W 061°32'0 0.0
2018-Feb-11 05:29N 16°14' W 061°32'0 0.0
2018-Feb-11 05:00N 16°14' W 061°32'0 0.0
2018-Feb-10 22:45N 16°14' W 061°32'312.0
2018-Feb-10 22:30N 16°12' W 061°32'1823.3
2018-Feb-10 21:43N 15°54' W 061°35'2 5.6
2018-Feb-10 21:26N 15°52' W 061°35'  

Dump ship's entire track history